Time;durP1;ratioP1;P1;durP2;ratioP2;P2;SDS_P1;SDS_P2;PMS_P1;PMS_P2;Temp;Humidity;BMP_temperature;BMP_pressure;BME280_temperature;BME280_humidity;BME280_pressure;Samples;Min_cycle;Max_cycle;Signal;HPM_P1;HPM_P2
2022/04/16 00:01:43;;;;;;;22.05;10.15;;;;;;;16.77;64.44;101073.69;5071223;28;20128;-79
2022/04/16 00:04:11;;;;;;;21.35;7.60;;;;;;;16.64;64.40;101055.53;5057989;28;20048;-75
2022/04/16 00:06:38;;;;;;;22.65;7.57;;;;;;;16.69;64.61;101066.75;5058814;28;20571;-77
2022/04/16 00:09:05;;;;;;;22.55;7.82;;;;;;;16.61;64.43;101058.97;5061777;28;20052;-79
2022/04/16 00:11:32;;;;;;;20.80;8.18;;;;;;;16.75;64.53;101071.19;5059443;28;20120;-75
2022/04/16 00:13:59;;;;;;;16.08;7.88;;;;;;;16.49;64.46;101033.28;5071440;28;20450;-77
2022/04/16 00:16:26;;;;;;;26.95;7.85;;;;;;;16.56;64.80;101047.81;5059194;28;20469;-75
2022/04/16 00:18:56;;;;;;;23.15;7.43;;;;;;;16.72;64.83;101087.84;5059893;28;20056;-75
2022/04/16 00:21:24;;;;;;;16.15;6.55;;;;;;;16.55;64.62;101048.97;5041300;28;20159;-77
2022/04/16 00:23:51;;;;;;;20.15;7.47;;;;;;;16.71;64.81;101074.88;5062648;28;20085;-80
2022/04/16 00:26:20;;;;;;;17.60;7.57;;;;;;;16.72;64.67;101070.94;5064540;28;20142;-79
2022/04/16 00:28:50;;;;;;;18.70;8.13;;;;;;;16.57;65.05;101052.28;5059697;28;20183;-76
2022/04/16 00:31:17;;;;;;;19.25;7.03;;;;;;;16.76;64.73;101081.31;5061033;28;20499;-75
2022/04/16 00:33:46;;;;;;;15.38;8.07;;;;;;;16.54;64.71;101047.25;5059386;28;20063;-74
2022/04/16 00:36:14;;;;;;;18.87;7.13;;;;;;;16.72;64.88;101083.06;5057662;28;20065;-77
2022/04/16 00:38:42;;;;;;;15.60;6.63;;;;;;;16.71;64.93;101075.72;5059557;28;20321;-77
2022/04/16 00:41:11;;;;;;;16.23;7.32;;;;;;;16.72;64.57;101082.22;5063570;28;20098;-79
2022/04/16 00:43:38;;;;;;;19.13;7.15;;;;;;;16.53;64.61;101042.78;5059919;28;20056;-80
2022/04/16 00:46:05;;;;;;;20.65;7.78;;;;;;;16.61;65.07;101061.78;5053090;28;20049;-81
2022/04/16 00:48:32;;;;;;;18.00;7.50;;;;;;;16.64;65.13;101058.34;5072308;28;20044;-80
2022/04/16 00:50:59;;;;;;;17.90;7.13;;;;;;;16.69;64.97;101066.75;5060800;28;20469;-79
2022/04/16 00:53:27;;;;;;;22.08;8.13;;;;;;;16.61;64.90;101044.88;5074905;28;20052;-80
2022/04/16 00:55:56;;;;;;;23.98;8.70;;;;;;;16.56;64.87;101028.06;5065629;28;20135;-80
2022/04/16 00:58:23;;;;;;;20.67;9.20;;;;;;;16.82;65.01;101062.31;5052914;28;20553;-80
2022/04/16 01:00:50;;;;;;;23.65;8.48;;;;;;;16.84;65.02;101064.81;5061923;28;20040;-78
2022/04/16 01:03:17;;;;;;;35.22;11.18;;;;;;;16.83;64.95;101068.78;5072537;28;20053;-77
2022/04/16 01:05:44;;;;;;;25.08;9.32;;;;;;;16.76;65.18;101055.09;5062463;28;20131;-78
2022/04/16 01:08:11;;;;;;;27.85;10.15;;;;;;;16.79;64.88;101060.94;5068415;28;20080;-77
2022/04/16 01:10:38;;;;;;;21.48;9.70;;;;;;;16.64;65.28;101035.78;5070314;28;20872;-77
2022/04/16 01:13:07;;;;;;;21.40;9.50;;;;;;;16.67;65.09;101040.81;5069756;28;20076;-79
2022/04/16 01:15:35;;;;;;;31.60;10.38;;;;;;;16.77;65.10;101051.94;5068816;28;20135;-78
2022/04/16 01:18:05;;;;;;;25.40;9.95;;;;;;;16.72;64.90;101042.72;5069615;28;20139;-78
2022/04/16 01:20:33;;;;;;;;;;;;;;;16.68;65.03;101053.75;5075860;28;20044;-78
2022/04/16 01:23:01;;;;;;;26.15;9.50;;;;;;;16.71;64.57;101035.41;5068981;28;19950;-78
2022/04/16 01:25:32;;;;;;;33.97;11.27;;;;;;;16.76;65.03;101049.44;5073637;28;20048;-78
2022/04/16 01:28:03;;;;;;;32.55;11.30;;;;;;;16.77;64.90;101043.50;5073460;28;20072;-80
2022/04/16 01:30:30;;;;;;;27.08;10.55;;;;;;;16.64;64.92;101018.88;5068290;28;20132;-80
2022/04/16 01:32:57;;;;;;;29.25;11.65;;;;;;;16.74;65.16;101041.28;5065237;28;20143;-79
2022/04/16 01:35:24;;;;;;;27.70;10.02;;;;;;;16.80;64.75;101051.34;5085078;28;20072;-81
2022/04/16 01:37:51;;;;;;;26.02;11.10;;;;;;;16.76;64.87;101033.38;5067409;28;20131;-80
2022/04/16 01:40:20;;;;;;;22.52;12.10;;;;;;;16.78;64.70;101033.88;5069994;28;20041;-81
2022/04/16 01:42:47;;;;;;;29.30;11.90;;;;;;;16.60;64.88;101000.91;5071178;28;20048;-81
2022/04/16 01:45:18;;;;;;;33.17;11.48;;;;;;;16.38;65.10;100978.22;5074801;28;20083;-80
2022/04/16 01:47:46;;;;;;;28.92;10.60;;;;;;;16.67;65.05;101028.72;5073183;28;20582;-82
2022/04/16 01:50:13;;;;;;;29.48;11.45;;;;;;;16.45;64.88;100999.22;5073217;28;20048;-77
2022/04/16 01:52:41;;;;;;;29.83;12.63;;;;;;;16.67;64.79;101035.19;5068007;28;20138;-84
2022/04/16 01:55:09;;;;;;;30.35;11.63;;;;;;;16.49;64.63;101011.53;5071525;28;20048;-84
2022/04/16 01:57:37;;;;;;;29.63;11.70;;;;;;;16.63;64.97;101034.13;5072569;28;20136;-83
2022/04/16 02:00:09;;;;;;;33.43;12.47;;;;;;;16.45;64.71;101009.66;5055570;28;20488;-84
2022/04/16 02:02:37;;;;;;;34.28;12.60;;;;;;;16.48;64.63;101009.06;5069504;28;20044;-84
2022/04/16 02:05:09;;;;;;;29.88;12.25;;;;;;;16.42;65.15;101001.81;5073962;28;20044;-83
2022/04/16 02:07:38;;;;;;;31.65;12.45;;;;;;;16.58;65.14;101026.63;5072541;28;20075;-83
2022/04/16 02:10:06;;;;;;;25.00;11.40;;;;;;;16.53;65.06;101011.75;5072577;28;20058;-78
2022/04/16 02:12:32;;;;;;;27.77;11.27;;;;;;;16.30;65.11;100977.75;5068305;28;20088;-80
2022/04/16 02:15:00;;;;;;;31.70;12.65;;;;;;;16.65;64.93;101020.56;5068271;28;20638;-80
2022/04/16 02:17:27;;;;;;;31.73;11.93;;;;;;;16.59;65.38;101016.16;5055626;28;20132;-78
2022/04/16 02:19:54;;;;;;;29.52;11.68;;;;;;;16.60;65.03;101017.84;5071010;28;20076;-77
2022/04/16 02:22:21;;;;;;;27.20;11.40;;;;;;;16.33;65.24;100979.97;5066396;28;20426;-78
2022/04/16 02:24:47;;;;;;;28.63;11.27;;;;;;;16.60;64.91;101015.00;5056158;28;20089;-78
2022/04/16 02:27:14;;;;;;;27.75;11.13;;;;;;;16.58;64.95;101018.16;5073497;28;20123;-81
2022/04/16 02:29:42;;;;;;;29.67;11.10;;;;;;;16.59;65.11;101013.34;5069197;28;20060;-81
2022/04/16 02:32:09;;;;;;;34.92;12.18;;;;;;;16.49;65.16;101003.09;5054458;28;20049;-79
2022/04/16 02:34:36;;;;;;;20.70;11.23;;;;;;;16.24;65.25;100967.75;5076379;28;20080;-80
2022/04/16 02:37:03;;;;;;;31.57;10.53;;;;;;;16.32;65.07;100983.94;5075697;28;20127;-77
2022/04/16 02:39:30;;;;;;;25.95;10.98;;;;;;;16.37;65.32;100990.63;5071984;28;20044;-79
2022/04/16 02:41:57;;;;;;;23.05;11.05;;;;;;;16.27;65.08;100975.59;5066766;28;20444;-79
2022/04/16 02:47:09;;;;;;;25.98;10.25;;;;;;;16.52;65.11;101029.84;5068170;28;20079;-78
2022/04/16 02:49:39;;;;;;;23.80;10.23;;;;;;;16.44;65.00;101007.97;5072343;28;20123;-77
2022/04/16 02:52:07;;;;;;;27.60;11.60;;;;;;;16.54;64.98;101013.44;5068348;28;20534;-79
2022/04/16 02:54:35;;;;;;;33.83;11.17;;;;;;;16.33;64.73;100984.78;5071515;28;20106;-78
2022/04/16 02:57:03;;;;;;;32.17;11.55;;;;;;;16.41;64.90;100997.31;5069924;28;20128;-82
2022/04/16 02:59:32;;;;;;;22.77;11.02;;;;;;;16.46;65.13;101012.16;5054880;28;20056;-82
2022/04/16 03:01:59;;;;;;;28.73;10.82;;;;;;;16.29;64.98;100998.66;5070062;28;20076;-83
2022/04/16 03:04:26;;;;;;;24.13;10.13;;;;;;;16.32;64.92;101005.66;5073403;28;20054;-78
2022/04/16 03:06:53;;;;;;;31.73;10.93;;;;;;;16.26;64.79;100995.59;5072293;28;20621;-83
2022/04/16 03:09:20;;;;;;;35.45;11.60;;;;;;;16.41;65.04;101031.13;5056871;28;20044;-80
2022/04/16 03:11:47;;;;;;;27.05;10.18;;;;;;;16.22;64.89;101006.66;5071728;28;20482;-78
2022/04/16 03:19:45;;;;;;;26.27;11.17;;;;;;;16.24;64.87;101021.28;5068607;28;20578;-82
2022/04/16 03:22:13;;;;;;;32.73;12.37;;;;;;;16.28;64.83;101027.16;5072080;28;20419;-81
2022/04/16 03:24:40;;;;;;;42.35;12.77;;;;;;;15.93;65.17;100989.97;5058519;28;20164;-82
2022/04/16 03:27:07;;;;;;;27.45;12.15;;;;;;;16.13;64.95;101014.13;5071876;28;20734;-82
2022/04/16 03:29:35;;;;;;;28.07;11.77;;;;;;;16.22;64.72;101022.72;5074490;28;20621;-79
2022/04/16 03:32:02;;;;;;;29.70;11.65;;;;;;;16.09;65.01;101010.25;5073643;28;20098;-79
2022/04/16 03:34:29;;;;;;;28.98;11.80;;;;;;;16.17;64.79;101029.31;5069640;28;20143;-79
2022/04/16 03:36:57;;;;;;;22.48;11.07;;;;;;;15.97;64.74;100993.00;5067773;28;20151;-79
2022/04/16 03:39:24;;;;;;;26.87;13.00;;;;;;;16.05;64.69;101007.22;5063104;28;20559;-79
2022/04/16 03:41:51;;;;;;;33.33;14.18;;;;;;;16.14;65.10;101027.09;5047244;28;20045;-84
2022/04/16 03:44:18;;;;;;;35.37;13.13;;;;;;;16.04;65.11;101013.16;5066806;28;20045;-82
2022/04/16 03:46:45;;;;;;;34.95;14.43;;;;;;;16.04;65.13;101024.44;5066204;28;20056;-79
2022/04/16 03:49:13;;;;;;;30.58;14.23;;;;;;;16.13;65.26;101047.09;5065892;28;20143;-86
2022/04/16 03:51:40;;;;;;;34.15;12.98;;;;;;;16.02;65.49;101023.91;5066800;28;20124;-82
2022/04/16 04:02:24;;;;;;;29.90;12.85;;;;;;;15.92;65.34;101009.97;5075172;28;20079;-82
2022/04/16 04:04:51;;;;;;;39.65;14.73;;;;;;;15.90;65.54;101009.41;5071168;28;20040;-81
2022/04/16 04:07:18;;;;;;;37.23;15.10;;;;;;;15.99;65.01;101022.53;5048667;28;20079;-82
2022/04/16 04:09:45;;;;;;;33.10;15.50;;;;;;;15.78;65.16;100991.03;5060605;28;20463;-82
2022/04/16 04:12:12;;;;;;;37.15;15.48;;;;;;;15.92;65.42;101012.78;5071272;28;20124;-80
2022/04/16 04:14:41;;;;;;;55.55;14.95;;;;;;;15.92;65.30;101007.16;5064691;28;20461;-80
2022/04/16 04:17:08;;;;;;;39.00;14.48;;;;;;;15.86;65.47;101003.56;5054257;28;20586;-83
2022/04/16 04:19:41;;;;;;;34.95;14.63;;;;;;;16.00;65.44;101028.97;5069977;28;20456;-79
2022/04/16 04:22:09;;;;;;;42.03;14.65;;;;;;;15.98;65.40;101022.84;5063950;28;20078;-79
2022/04/16 04:24:37;;;;;;;36.03;14.53;;;;;;;15.85;65.14;101013.16;5053980;28;20135;-79
2022/04/16 04:27:06;;;;;;;50.57;18.03;;;;;;;15.97;65.52;101021.16;5067525;28;20131;-82
2022/04/16 04:29:34;;;;;;;30.57;14.33;;;;;;;15.62;65.27;100967.00;5050300;28;20472;-85
2022/04/16 04:32:01;;;;;;;37.53;15.33;;;;;;;15.85;65.52;101008.38;5055378;28;20044;-83
2022/04/16 04:34:28;;;;;;;38.97;15.18;;;;;;;15.90;65.29;101026.31;5075337;28;20072;-82
2022/04/16 04:36:55;;;;;;;40.53;15.35;;;;;;;15.80;65.49;101014.09;5092057;28;20068;-78
2022/04/16 04:39:23;;;;;;;40.85;16.95;;;;;;;15.90;65.53;101024.38;5082901;28;20052;-76
2022/04/16 04:41:50;;;;;;;39.40;14.90;;;;;;;15.83;65.64;101007.03;5089107;28;20047;-78
2022/04/16 04:44:17;;;;;;;45.88;16.95;;;;;;;15.88;65.97;101024.66;5090520;28;20028;-77
2022/04/16 04:46:51;;;;;;;27.33;13.90;;;;;;;15.82;65.50;101010.97;5087702;28;20048;-78
2022/04/16 04:49:18;;;;;;;45.78;14.75;;;;;;;15.82;65.49;101025.03;5080093;28;20052;-76
2022/04/16 04:51:45;;;;;;;34.00;14.80;;;;;;;15.85;65.65;101030.91;5088817;28;20052;-78
2022/04/16 04:54:12;;;;;;;51.97;14.25;;;;;;;15.71;65.62;101018.72;5065810;28;20088;-79
2022/04/16 04:56:39;;;;;;;38.72;15.15;;;;;;;15.77;65.57;101027.94;5068314;28;20078;-80
2022/04/16 04:59:06;;;;;;;64.33;16.17;;;;;;;15.82;65.57;101030.66;5071913;28;20854;-83
2022/04/16 05:01:33;;;;;;;46.05;15.63;;;;;;;15.67;65.63;101006.41;5066170;28;20147;-82
2022/04/16 05:04:00;;;;;;;39.42;15.23;;;;;;;15.80;65.61;101033.81;5071569;28;20055;-85
2022/04/16 05:06:27;;;;;;;37.17;15.07;;;;;;;15.83;65.84;101038.84;5073729;28;20048;-83
2022/04/16 05:08:54;;;;;;;35.63;14.30;;;;;;;15.71;65.55;101012.25;5061594;28;20122;-79
2022/04/16 05:11:21;;;;;;;33.43;14.27;;;;;;;15.77;65.79;101037.22;5069895;28;20075;-80
2022/04/16 05:13:47;;;;;;;45.13;14.50;;;;;;;15.52;65.78;100996.19;5070862;28;20076;-79
2022/04/16 05:16:15;;;;;;;32.13;13.97;;;;;;;15.74;65.82;101029.38;5082222;28;20143;-78
2022/04/16 05:18:42;;;;;;;36.40;14.07;;;;;;;15.69;65.67;101025.78;5069598;28;20057;-80
2022/04/16 05:21:09;;;;;;;42.77;14.93;;;;;;;15.60;65.44;101017.16;5058119;28;20053;-82
2022/04/16 05:23:39;;;;;;;78.05;17.33;;;;;;;15.56;65.43;101007.66;5075633;28;20105;-81
2022/04/16 05:26:09;;;;;;;45.53;15.97;;;;;;;15.67;65.04;101014.84;5074056;28;20048;-81
2022/04/16 05:28:36;;;;;;;58.80;15.37;;;;;;;15.75;65.19;101036.69;5074625;28;20440;-81
2022/04/16 05:31:04;;;;;;;37.55;14.52;;;;;;;15.64;65.44;101032.31;5063911;28;20090;-80
2022/04/16 05:36:18;;;;;;;38.53;14.67;;;;;;;15.62;65.77;101026.13;5072159;28;20458;-79
2022/04/16 05:38:46;;;;;;;64.10;14.90;;;;;;;15.60;65.83;101032.09;5088205;28;20048;-80
2022/04/16 05:41:12;;;;;;;102.75;17.48;;;;;;;15.46;65.80;101016.25;5095046;28;20498;-80
2022/04/16 05:43:39;;;;;;;70.20;16.27;;;;;;;15.48;65.79;101013.94;5074301;28;20049;-80
2022/04/16 05:46:07;;;;;;;40.47;14.13;;;;;;;15.61;65.94;101039.38;5080057;28;20143;-80
2022/04/16 05:48:34;;;;;;;45.67;16.27;;;;;;;15.43;65.77;101011.22;5076461;28;20070;-79
2022/04/16 05:51:02;;;;;;;77.63;16.83;;;;;;;15.47;66.11;101007.50;5076654;28;20072;-80
2022/04/16 05:53:31;;;;;;;56.43;16.93;;;;;;;15.52;66.07;101018.69;5071263;28;20503;-84
2022/04/16 05:55:59;;;;;;;44.23;14.30;;;;;;;15.44;65.84;100996.84;5072670;28;20052;-83
2022/04/16 05:58:26;;;;;;;98.13;15.03;;;;;;;15.67;66.07;101045.81;5070981;28;20056;-82
2022/04/16 06:00:54;;;;;;;75.40;16.57;;;;;;;15.54;65.85;101024.84;5071048;28;20127;-83
2022/04/16 06:03:21;;;;;;;49.10;13.13;;;;;;;15.53;65.93;101044.84;5071727;28;20484;-80
2022/04/16 06:05:48;;;;;;;52.40;15.17;;;;;;;15.55;65.78;101053.81;5061845;28;20534;-83
2022/04/16 06:08:15;;;;;;;76.33;15.63;;;;;;;15.51;65.87;101059.22;5078220;28;20053;-78
2022/04/16 06:10:42;;;;;;;63.13;15.03;;;;;;;15.41;65.68;101042.47;5084924;28;20053;-80
2022/04/16 06:13:11;;;;;;;64.68;15.13;;;;;;;15.14;65.75;100998.94;5088344;28;20048;-81
2022/04/16 06:15:41;;;;;;;127.67;18.13;;;;;;;15.23;65.67;101024.41;5073528;28;20072;-84
2022/04/16 06:18:09;;;;;;;45.45;15.05;;;;;;;15.27;65.88;101039.53;5069178;28;20107;-80
2022/04/16 06:20:37;;;;;;;122.83;17.33;;;;;;;15.24;65.85;101042.13;5078516;28;20076;-77
2022/04/16 06:23:04;;;;;;;72.57;14.23;;;;;;;15.32;65.73;101062.00;5073092;28;20083;-83
2022/04/16 06:25:32;;;;;;;107.90;23.47;;;;;;;15.26;66.08;101059.56;5076258;28;20078;-77
2022/04/16 06:27:59;;;;;;;175.33;21.43;;;;;;;15.28;65.96;101057.25;5073455;28;20076;-80
2022/04/16 06:30:26;;;;;;;73.27;14.73;;;;;;;15.26;65.97;101068.81;5065629;28;20059;-81
2022/04/16 06:32:53;;;;;;;183.03;20.60;;;;;;;15.04;66.04;101048.81;5073735;28;20084;-81
2022/04/16 06:35:20;;;;;;;113.37;17.10;;;;;;;15.16;66.30;101069.78;5075142;28;20127;-82
2022/04/16 06:37:47;;;;;;;73.47;14.40;;;;;;;15.03;66.30;101039.53;5073815;28;20488;-77
2022/04/16 06:40:14;;;;;;;86.30;15.87;;;;;;;15.18;66.33;101066.69;5069630;28;20139;-78
2022/04/16 06:42:42;;;;;;;112.32;17.75;;;;;;;15.22;66.46;101079.00;5069984;28;20042;-75
2022/04/16 06:45:11;;;;;;;134.13;18.67;;;;;;;15.15;66.54;101079.38;5065622;28;20040;-79
2022/04/16 06:47:38;;;;;;;172.97;21.90;;;;;;;15.18;66.51;101086.38;5071760;28;20048;-78
2022/04/16 06:50:07;;;;;;;81.87;15.83;;;;;;;15.14;66.61;101071.22;5070424;28;20072;-79
2022/04/16 06:52:34;;;;;;;60.70;15.87;;;;;;;15.17;66.97;101082.69;5066978;28;20056;-82
2022/04/16 06:55:01;;;;;;;50.63;15.17;;;;;;;15.14;66.73;101082.47;5070791;28;20134;-81
2022/04/16 06:57:28;;;;;;;56.90;14.50;;;;;;;15.20;66.81;101098.16;5071040;28;20147;-85
2022/04/16 07:00:03;;;;;;;78.60;16.97;;;;;;;14.99;66.81;101069.41;5070599;28;20135;-80
2022/04/16 07:02:30;;;;;;;143.57;20.67;;;;;;;14.99;66.72;101077.00;5067047;28;20048;-78
2022/04/16 07:04:58;;;;;;;70.47;14.80;;;;;;;15.21;67.00;101105.44;5070486;28;20133;-79
2022/04/16 07:07:25;;;;;;;72.73;14.13;;;;;;;15.11;66.94;101083.06;5067801;28;20514;-78
2022/04/16 07:09:53;;;;;;;53.70;13.40;;;;;;;15.05;66.89;101073.03;5067496;28;20491;-84
2022/04/16 07:12:20;;;;;;;74.70;12.97;;;;;;;15.06;67.00;101085.94;5065522;28;20049;-76
2022/04/16 07:14:47;;;;;;;28.13;11.10;;;;;;;15.14;66.73;101100.22;5060619;28;20139;-75
2022/04/16 07:17:18;;;;;;;35.37;10.20;;;;;;;15.03;66.90;101087.38;5053072;28;20048;-76
2022/04/16 07:19:45;;;;;;;70.13;14.73;;;;;;;14.77;66.90;101047.44;5058941;28;20130;-75
2022/04/16 07:22:12;;;;;;;37.40;11.47;;;;;;;14.90;67.19;101066.41;5069386;28;20179;-77
2022/04/16 07:24:42;;;;;;;25.53;10.30;;;;;;;15.07;67.22;101096.03;5066953;28;20125;-76
2022/04/16 07:27:09;;;;;;;34.90;11.07;;;;;;;15.04;67.18;101093.81;5067419;28;20048;-77
2022/04/16 07:29:36;;;;;;;50.63;12.77;;;;;;;15.08;67.45;101101.38;5062970;28;20502;-77
2022/04/16 07:32:04;;;;;;;64.87;13.17;;;;;;;15.09;67.22;101102.22;5065336;28;20040;-77
2022/04/16 07:34:31;;;;;;;32.90;11.90;;;;;;;14.97;67.40;101082.91;5070513;28;20106;-76
2022/04/16 07:36:58;;;;;;;38.27;12.50;;;;;;;15.09;67.35;101096.59;5066111;28;20140;-77
2022/04/16 07:39:25;;;;;;;42.57;12.17;;;;;;;15.07;67.35;101096.03;5063773;28;20586;-75
2022/04/16 07:41:52;;;;;;;45.30;12.63;;;;;;;15.12;67.19;101094.03;5073123;28;20044;-77
2022/04/16 07:44:19;;;;;;;26.53;11.83;;;;;;;15.08;67.52;101078.06;5062730;28;20215;-75
2022/04/16 07:46:46;;;;;;;21.77;10.33;;;;;;;15.25;67.45;101109.38;5059337;28;20057;-76
2022/04/16 07:49:13;;;;;;;21.07;10.43;;;;;;;15.22;67.37;101103.50;5062447;28;20139;-75
2022/04/16 07:51:42;;;;;;;31.13;11.50;;;;;;;15.23;67.26;101106.00;5063500;28;20127;-78
2022/04/16 07:54:10;;;;;;;34.13;13.27;;;;;;;15.07;66.97;101084.78;5064928;28;20140;-76
2022/04/16 07:56:37;;;;;;;24.77;10.47;;;;;;;15.13;66.78;101087.25;5069063;28;20076;-79
2022/04/16 07:59:03;;;;;;;21.30;10.60;;;;;;;15.21;67.04;101105.44;5064360;28;20048;-76
2022/04/16 08:01:30;;;;;;;25.40;9.73;;;;;;;15.14;67.01;101094.56;5066369;28;20562;-76
2022/04/16 08:03:57;;;;;;;24.10;10.97;;;;;;;15.31;67.30;101112.94;5065816;28;21473;-75
2022/04/16 08:06:24;;;;;;;26.10;9.60;;;;;;;15.26;67.26;101111.03;5064496;28;20135;-76
2022/04/16 08:08:52;;;;;;;22.47;11.27;;;;;;;15.16;67.03;101089.47;5041741;28;20091;-77
2022/04/16 08:11:19;;;;;;;29.37;12.00;;;;;;;15.24;67.05;101104.03;5068155;28;20075;-75
2022/04/16 08:13:46;;;;;;;28.67;10.33;;;;;;;15.34;67.37;101110.38;5066621;28;20048;-76
2022/04/16 08:16:13;;;;;;;27.93;10.23;;;;;;;15.40;66.80;101120.44;5066181;28;20139;-76
2022/04/16 08:18:40;;;;;;;20.07;8.60;;;;;;;15.26;67.13;101096.97;5067513;28;20040;-77
2022/04/16 08:21:09;;;;;;;22.43;8.53;;;;;;;15.44;67.36;101120.66;5069506;28;20083;-78
2022/04/16 08:23:43;;;;;;;18.45;8.30;;;;;;;15.54;67.31;101102.81;5046527;28;20099;-76
2022/04/16 08:26:11;;;;;;;16.93;8.63;;;;;;;15.60;66.99;101101.63;5064043;28;20098;-77
2022/04/16 08:28:38;;;;;;;21.95;9.90;;;;;;;15.68;67.16;101115.06;5060827;28;20139;-78
2022/04/16 08:31:05;;;;;;;22.13;9.25;;;;;;;15.81;66.71;101128.41;5058185;28;20511;-79
2022/04/16 08:33:31;;;;;;;16.57;9.27;;;;;;;15.61;66.76;101087.22;5054672;28;21331;-77
2022/04/16 08:35:58;;;;;;;18.80;9.15;;;;;;;15.92;66.57;101125.44;5043763;28;20571;-78
2022/04/16 08:38:25;;;;;;;20.97;11.63;;;;;;;15.79;66.72;101098.88;5071677;28;20091;-79
2022/04/16 08:40:53;;;;;;;16.65;8.77;;;;;;;15.77;66.82;101092.72;5076889;28;20076;-79
2022/04/16 08:43:20;;;;;;;16.73;8.85;;;;;;;15.85;66.21;101100.47;5059048;28;20084;-78
2022/04/16 08:45:50;;;;;;;14.52;9.05;;;;;;;16.02;66.50;101111.22;5076793;28;20131;-78
2022/04/16 08:48:19;;;;;;;16.40;9.20;;;;;;;15.80;66.16;101076.03;5076841;28;20096;-80
2022/04/16 08:50:47;;;;;;;14.40;8.07;;;;;;;16.07;65.94;101105.53;5054784;28;20045;-79
2022/04/16 08:53:15;;;;;;;22.35;9.13;;;;;;;16.02;66.03;101106.41;5042674;28;20084;-78
2022/04/16 08:55:42;;;;;;;15.18;7.07;;;;;;;16.18;66.04;101123.97;5065221;28;20092;-78
2022/04/16 08:58:09;;;;;;;20.42;11.02;;;;;;;16.27;65.91;101124.09;5077758;28;20538;-78
2022/04/16 09:00:36;;;;;;;21.00;10.15;;;;;;;16.26;66.04;101100.72;5075319;28;20048;-79
2022/04/16 09:03:05;;;;;;;19.30;11.23;;;;;;;16.43;65.54;101117.06;5059100;28;20076;-78
2022/04/16 09:05:35;;;;;;;20.30;11.40;;;;;;;16.46;65.60;101116.47;5072323;28;20448;-77
2022/04/16 09:08:03;;;;;;;21.13;9.82;;;;;;;16.70;65.77;101129.63;5075290;28;20595;-78
2022/04/16 09:10:32;;;;;;;17.08;8.57;;;;;;;16.72;65.37;101133.81;5074323;28;20507;-78
2022/04/16 09:13:01;;;;;;;18.00;10.05;;;;;;;16.60;65.11;101122.16;5076556;28;20128;-79
2022/04/16 09:15:28;;;;;;;15.48;9.13;;;;;;;16.72;65.19;101139.47;5057824;28;20415;-79
2022/04/16 09:18:04;;;;;;;21.55;10.95;;;;;;;16.64;64.94;101120.41;5076214;28;20044;-78
2022/04/16 09:20:33;;;;;;;18.17;10.20;;;;;;;16.88;64.89;101137.22;5070865;28;20087;-79
2022/04/16 09:23:01;;;;;;;16.90;8.32;;;;;;;16.88;64.80;101130.75;5058163;28;20080;-78
2022/04/16 09:25:30;;;;;;;17.88;9.57;;;;;;;16.71;64.62;101111.53;5072539;28;20080;-78
2022/04/16 09:28:05;;;;;;;20.70;10.63;;;;;;;16.96;65.05;101146.97;5075520;28;20175;-78
2022/04/16 09:30:33;;;;;;;22.23;11.05;;;;;;;16.92;64.33;101121.38;5074325;28;20084;-78
2022/04/16 09:33:02;;;;;;;21.30;11.00;;;;;;;17.09;64.40;101129.22;5066903;28;20072;-78
2022/04/16 09:35:36;;;;;;;20.45;10.35;;;;;;;17.24;64.63;101150.69;5055827;28;20084;-78
2022/04/16 09:38:14;;;;;;;20.42;10.23;;;;;;;17.40;64.37;101166.22;5057180;28;20415;-78
2022/04/16 09:40:46;;;;;;;23.67;11.90;;;;;;;17.48;64.37;101139.22;5062724;28;20135;-79
2022/04/16 09:43:14;;;;;;;24.67;11.40;;;;;;;17.72;64.13;101155.97;5066624;28;20277;-77
2022/04/16 09:45:42;;;;;;;23.58;11.63;;;;;;;17.81;63.85;101150.44;5085117;28;20466;-78
2022/04/16 09:48:12;;;;;;;25.83;11.30;;;;;;;17.95;63.92;101139.97;5076059;28;20459;-77
2022/04/16 09:50:41;;;;;;;21.57;12.20;;;;;;;18.29;63.44;101147.09;5073419;28;20063;-78
2022/04/16 09:53:10;;;;;;;20.83;10.52;;;;;;;18.40;63.33;101138.09;5074181;28;20048;-78
2022/04/16 09:55:38;;;;;;;19.85;11.02;;;;;;;18.74;62.62;101141.56;5074076;28;20056;-79
2022/04/16 09:58:06;;;;;;;26.17;12.98;;;;;;;18.99;62.52;101145.72;5073627;28;20503;-79
2022/04/16 10:00:36;;;;;;;22.02;11.98;;;;;;;19.27;61.83;101135.88;5075167;28;20048;-78
2022/04/16 10:03:23;;;;;;;17.38;9.98;;;;;;;19.88;61.37;101151.16;5070946;28;20049;-78
2022/04/16 10:05:50;;;;;;;19.42;10.70;;;;;;;20.51;60.44;101143.28;5074855;28;20048;-78
2022/04/16 10:08:19;;;;;;;17.75;10.85;;;;;;;21.29;59.25;101150.84;5074058;28;20048;-79
2022/04/16 10:10:53;;;;;;;18.42;11.73;;;;;;;22.10;57.89;101151.84;5055982;28;20470;-78
2022/04/16 10:13:22;;;;;;;21.67;11.75;;;;;;;22.76;56.36;101125.56;5074161;28;20131;-78
2022/04/16 10:15:59;;;;;;;20.55;11.05;;;;;;;23.53;54.86;101152.44;5075411;28;20196;-78
2022/04/16 10:18:28;;;;;;;18.50;10.98;;;;;;;24.10;53.92;101153.53;5077115;28;20055;-79
2022/04/16 10:20:56;;;;;;;18.38;9.40;;;;;;;24.55;52.51;101141.94;5075930;28;20131;-80
2022/04/16 10:23:31;;;;;;;18.50;11.03;;;;;;;24.87;51.88;101118.38;5071159;28;20143;-77
2022/04/16 10:26:11;;;;;;;14.63;9.63;;;;;;;25.05;50.97;101136.84;5070727;28;20076;-78
2022/04/16 10:28:41;;;;;;;15.55;10.20;;;;;;;24.98;50.46;101143.19;5074270;28;20055;-78
2022/04/16 10:31:27;;;;;;;;;;;;;;;24.96;53.38;101144.78;5074733;28;20091;-78
2022/04/16 10:34:16;;;;;;;18.60;10.13;;;;;;;25.62;51.29;101131.88;5074128;28;19920;-78
2022/04/16 10:36:54;;;;;;;19.38;10.57;;;;;;;26.13;49.58;101129.09;5074196;28;20087;-79
2022/04/16 10:39:31;;;;;;;15.52;9.68;;;;;;;26.56;48.46;101127.22;5074448;28;20162;-78
2022/04/16 10:42:00;;;;;;;17.23;10.75;;;;;;;26.80;47.34;101121.16;5075258;28;20466;-78
2022/04/16 10:44:30;;;;;;;20.15;11.07;;;;;;;27.20;47.00;101116.25;5074689;28;20079;-79
2022/04/16 10:46:59;;;;;;;17.00;11.70;;;;;;;27.59;45.98;101131.31;5074267;28;20052;-78
2022/04/16 10:49:27;;;;;;;16.90;10.60;;;;;;;27.86;45.56;101132.22;5074498;28;20469;-78
2022/04/16 10:51:57;;;;;;;18.02;10.32;;;;;;;27.99;45.13;101133.66;5074528;28;20094;-79
2022/04/16 10:54:34;;;;;;;21.02;12.23;;;;;;;28.30;44.81;101120.16;5073928;28;20091;-79
2022/04/16 10:57:02;;;;;;;18.45;10.75;;;;;;;28.80;43.54;101121.72;5072777;28;20151;-78
2022/04/16 10:59:41;;;;;;;21.00;12.17;;;;;;;29.48;42.75;101116.72;5072907;28;20090;-78
2022/04/16 11:02:25;;;;;;;25.60;12.05;;;;;;;30.30;41.59;101116.59;5055611;28;20076;-78
2022/04/16 11:05:00;;;;;;;19.63;12.20;;;;;;;30.98;40.09;101098.81;5071725;28;20052;-77
2022/04/16 11:07:29;;;;;;;21.80;11.68;;;;;;;31.29;39.42;101114.53;5052563;28;20048;-78
2022/04/16 11:09:57;;;;;;;21.05;11.68;;;;;;;31.21;39.51;101112.84;5073197;28;20554;-77
2022/04/16 11:12:24;;;;;;;21.33;10.68;;;;;;;31.02;39.41;101088.09;5069090;28;20045;-78
2022/04/16 11:14:53;;;;;;;17.23;11.35;;;;;;;30.97;38.54;101094.25;5073481;28;20135;-79
2022/04/16 11:17:20;;;;;;;20.75;10.85;;;;;;;30.90;38.51;101107.41;5054825;28;20076;-78
2022/04/16 11:20:05;;;;;;;16.30;10.13;;;;;;;31.01;39.02;101103.72;5073187;28;20143;-78
2022/04/16 11:22:33;;;;;;;20.17;10.70;;;;;;;30.99;37.97;101080.25;5051514;28;20056;-79
2022/04/16 11:25:05;;;;;;;16.92;9.88;;;;;;;31.10;38.14;101098.41;5053450;28;20136;-79
2022/04/16 11:35:59;;;;;;;16.10;9.75;;;;;;;31.39;37.18;101091.50;5054006;28;20049;-78
2022/04/16 11:38:31;;;;;;;14.27;6.72;;;;;;;31.43;36.10;101079.13;5053606;28;20056;-79
2022/04/16 11:41:00;;;;;;;11.02;7.28;;;;;;;31.44;36.17;101052.72;5056860;28;20072;-80
2022/04/16 11:43:28;;;;;;;11.25;6.90;;;;;;;31.81;36.06;101089.84;5073774;28;20068;-79
2022/04/16 11:45:56;;;;;;;15.95;7.38;;;;;;;31.82;35.92;101082.81;5073572;28;20052;-79